createdAt,value
2023-01-26T00:01:24.227Z,12.93
2023-01-26T00:03:52.359Z,13.80
2023-01-26T00:06:21.940Z,13.30
2023-01-26T00:08:51.892Z,15.27
2023-01-26T00:11:25.006Z,14.53
2023-01-26T00:13:54.095Z,14.47
2023-01-26T00:16:23.529Z,12.50
2023-01-26T00:18:51.315Z,13.37
2023-01-26T00:21:21.639Z,13.23
2023-01-26T00:23:50.610Z,13.23
2023-01-26T00:26:24.642Z,13.23
2023-01-26T00:28:53.191Z,13.40
2023-01-26T00:31:24.271Z,13.47
2023-01-26T00:33:57.731Z,12.67
2023-01-26T00:36:25.391Z,13.10
2023-01-26T00:38:52.697Z,12.77
2023-01-26T00:41:38.264Z,12.77
2023-01-26T00:44:05.684Z,12.10
2023-01-26T00:46:33.374Z,12.67
2023-01-26T00:49:01.301Z,12.83
2023-01-26T00:51:29.214Z,13.67
2023-01-26T00:53:57.131Z,14.47
2023-01-26T00:56:28.351Z,13.50
2023-01-26T00:58:55.881Z,12.53
2023-01-26T01:01:23.422Z,14.37
2023-01-26T01:03:52.284Z,12.70
2023-01-26T01:06:19.997Z,12.90
2023-01-26T01:08:47.456Z,12.37
2023-01-26T01:11:15.099Z,11.17
2023-01-26T01:13:42.596Z,12.50
2023-01-26T01:16:12.847Z,12.50
2023-01-26T01:18:41.134Z,11.43
2023-01-26T01:21:10.807Z,11.80
2023-01-26T01:23:38.942Z,11.70
2023-01-26T01:26:06.963Z,11.63
2023-01-26T01:28:35.696Z,12.47
2023-01-26T01:31:08.043Z,11.73
2023-01-26T01:33:36.121Z,10.93
2023-01-26T01:36:07.561Z,11.30
2023-01-26T01:38:35.364Z,11.47
2023-01-26T01:41:02.831Z,12.90
2023-01-26T01:43:30.532Z,11.00
2023-01-26T01:46:01.402Z,12.03
2023-01-26T01:48:37.806Z,11.30
2023-01-26T01:51:14.688Z,11.10
2023-01-26T01:53:45.784Z,11.10
2023-01-26T01:56:22.093Z,10.43
2023-01-26T01:58:53.357Z,12.33
2023-01-26T02:01:21.270Z,11.57
2023-01-26T02:03:52.245Z,12.33
2023-01-26T02:06:50.871Z,11.20
2023-01-26T02:09:39.383Z,12.03
2023-01-26T02:12:10.593Z,11.43
2023-01-26T02:14:38.113Z,14.00
2023-01-26T02:17:05.890Z,12.60
2023-01-26T02:20:09.728Z,12.80
2023-01-26T02:23:00.547Z,12.93
2023-01-26T02:25:58.107Z,11.80
2023-01-26T02:28:27.786Z,12.47
2023-01-26T02:30:58.672Z,12.13
2023-01-26T02:33:29.563Z,12.90
2023-01-26T02:35:57.076Z,11.27
2023-01-26T02:38:29.553Z,10.83
2023-01-26T02:41:02.007Z,11.30
2023-01-26T02:43:29.488Z,11.20
2023-01-26T02:45:57.075Z,11.43
2023-01-26T02:48:43.271Z,11.07
2023-01-26T02:51:11.105Z,11.03
2023-01-26T02:53:38.721Z,12.60
2023-01-26T02:56:06.662Z,11.83
2023-01-26T02:58:34.187Z,10.53
2023-01-26T03:01:02.057Z,11.83
2023-01-26T03:03:42.224Z,10.17
2023-01-26T03:06:11.621Z,11.37
2023-01-26T03:08:40.035Z,10.83
2023-01-26T03:11:09.644Z,11.37
2023-01-26T03:13:37.434Z,10.50
2023-01-26T03:16:08.862Z,8.63
2023-01-26T03:18:55.420Z,9.07
2023-01-26T03:21:42.025Z,9.10
2023-01-26T03:24:32.362Z,9.87
2023-01-26T03:27:18.669Z,8.90
2023-01-26T03:29:46.688Z,10.20
2023-01-26T03:32:14.558Z,8.93
2023-01-26T03:34:42.191Z,9.00
2023-01-26T03:37:10.022Z,10.23
2023-01-26T03:39:56.170Z,9.73
2023-01-26T03:42:47.962Z,8.57
2023-01-26T03:45:33.781Z,9.40
2023-01-26T03:48:29.255Z,10.70
2023-01-26T03:51:16.571Z,8.90
2023-01-26T03:54:02.541Z,9.10
2023-01-26T03:56:33.369Z,9.27
2023-01-26T03:59:08.796Z,10.30
2023-01-26T04:01:38.669Z,10.50
2023-01-26T04:04:26.129Z,9.67
2023-01-26T04:07:12.738Z,10.27
2023-01-26T04:09:41.285Z,9.97
2023-01-26T04:12:10.900Z,9.27
2023-01-26T04:14:56.503Z,9.90
2023-01-26T04:17:43.221Z,10.33
2023-01-26T04:20:30.147Z,9.27
2023-01-26T04:22:58.030Z,8.80
2023-01-26T04:25:27.013Z,8.87
2023-01-26T04:27:54.612Z,9.67
2023-01-26T04:30:22.948Z,9.20
2023-01-26T04:32:52.344Z,8.00
2023-01-26T04:35:20.303Z,7.57
2023-01-26T04:37:48.603Z,10.53
2023-01-26T04:40:16.674Z,8.43
2023-01-26T04:42:44.284Z,8.50
2023-01-26T04:45:12.411Z,8.93
2023-01-26T04:47:40.680Z,7.83
2023-01-26T04:50:10.311Z,8.97
2023-01-26T04:52:38.501Z,8.73
2023-01-26T04:55:06.784Z,8.47
2023-01-26T04:57:34.817Z,8.40
2023-01-26T05:00:02.539Z,8.07
2023-01-26T05:02:30.812Z,7.73
2023-01-26T05:04:58.432Z,8.50
2023-01-26T05:07:26.174Z,8.73
2023-01-26T05:09:53.681Z,8.83
2023-01-26T05:12:35.990Z,8.27
2023-01-26T05:15:08.206Z,7.80
2023-01-26T05:17:37.062Z,8.43
2023-01-26T05:20:05.767Z,9.50
2023-01-26T05:22:42.791Z,9.20
2023-01-26T05:25:16.595Z,8.73
2023-01-26T05:27:44.890Z,8.70
2023-01-26T05:30:19.534Z,7.57
2023-01-26T05:32:47.782Z,7.03
2023-01-26T05:35:15.603Z,7.63
2023-01-26T05:37:47.982Z,8.47
2023-01-26T05:40:15.976Z,7.10
2023-01-26T05:42:44.267Z,7.97
2023-01-26T05:45:13.189Z,7.87
2023-01-26T05:47:50.588Z,8.13
2023-01-26T05:50:26.598Z,6.50
2023-01-26T05:53:12.688Z,7.30
2023-01-26T05:55:43.073Z,8.17
2023-01-26T05:58:18.986Z,7.40
2023-01-26T06:00:47.523Z,7.10
2023-01-26T06:03:18.650Z,7.67
2023-01-26T06:06:23.589Z,6.83
2023-01-26T06:08:55.470Z,8.10
2023-01-26T06:11:44.953Z,7.27
2023-01-26T06:14:15.397Z,7.67
2023-01-26T06:16:47.317Z,8.33
2023-01-26T06:19:25.333Z,7.77
2023-01-26T06:22:08.040Z,7.00
2023-01-26T06:24:38.751Z,7.63
2023-01-26T06:27:29.404Z,8.43
2023-01-26T06:30:11.245Z,6.60
2023-01-26T06:32:45.808Z,6.60
2023-01-26T06:35:19.145Z,6.57
2023-01-26T06:37:53.081Z,6.93
2023-01-26T06:40:37.128Z,6.77
2023-01-26T06:46:03.625Z,6.17
2023-01-26T06:48:48.644Z,7.10
2023-01-26T06:51:41.828Z,6.30
2023-01-26T06:54:32.047Z,7.00
2023-01-26T06:57:00.210Z,7.00
2023-01-26T07:03:03.101Z,8.90
2023-01-26T07:06:02.880Z,6.63
2023-01-26T07:08:51.800Z,6.03
2023-01-26T07:11:27.859Z,5.63
2023-01-26T07:14:22.346Z,6.50
2023-01-26T07:16:57.195Z,5.80
2023-01-26T07:25:55.626Z,8.80
2023-01-26T07:28:41.336Z,7.77
2023-01-26T07:31:19.589Z,6.37
2023-01-26T07:36:51.902Z,6.57
2023-01-26T07:39:30.320Z,6.00
2023-01-26T07:42:39.837Z,7.30
2023-01-26T07:45:15.054Z,6.93
2023-01-26T07:47:50.452Z,6.90
2023-01-26T08:00:23.979Z,6.73
2023-01-26T08:03:28.607Z,8.27
2023-01-26T08:07:05.039Z,7.07
2023-01-26T09:03:19.325Z,6.23
2023-01-26T09:05:56.228Z,6.77
2023-01-26T09:08:23.842Z,6.50
2023-01-26T09:11:26.700Z,6.37
2023-01-26T09:14:02.775Z,6.47
2023-01-26T09:16:31.620Z,6.23
2023-01-26T09:22:46.569Z,5.93
2023-01-26T09:25:40.520Z,7.10
2023-01-26T09:34:11.695Z,6.87
2023-01-26T09:37:25.633Z,6.93
2023-01-26T09:39:49.851Z,6.07
2023-01-26T09:42:46.176Z,6.27
2023-01-26T09:45:49.735Z,6.57
2023-01-26T09:48:33.910Z,6.07
2023-01-26T09:51:08.715Z,7.03
2023-01-26T09:54:19.748Z,6.63
2023-01-26T09:57:05.478Z,5.40
2023-01-26T10:00:15.494Z,6.67
2023-01-26T10:03:09.915Z,5.90
2023-01-26T10:06:03.045Z,5.40
2023-01-26T10:08:41.881Z,6.10
2023-01-26T10:11:25.877Z,6.57
2023-01-26T10:14:19.708Z,6.33
2023-01-26T10:16:55.555Z,6.27
2023-01-26T10:19:45.102Z,6.90
2023-01-26T10:22:31.640Z,8.17
2023-01-26T10:25:02.755Z,7.33
2023-01-26T10:27:31.121Z,7.30
2023-01-26T10:30:06.483Z,7.30
2023-01-26T10:32:36.453Z,6.47
2023-01-26T10:35:10.929Z,7.63
2023-01-26T10:37:42.586Z,6.70
2023-01-26T10:40:12.070Z,6.53
2023-01-26T10:43:19.276Z,7.50
2023-01-26T10:45:49.623Z,7.77
2023-01-26T10:48:30.354Z,7.70
2023-01-26T10:51:17.523Z,7.53
2023-01-26T10:53:48.188Z,8.73
2023-01-26T10:56:21.975Z,8.80
2023-01-26T10:58:58.161Z,7.03
2023-01-26T11:01:34.219Z,7.03
2023-01-26T11:04:08.346Z,8.30
2023-01-26T11:06:37.856Z,7.20
2023-01-26T11:09:42.702Z,7.60
2023-01-26T11:12:36.555Z,7.53
2023-01-26T11:15:07.770Z,6.60
2023-01-26T11:17:47.220Z,6.70
2023-01-26T11:20:42.699Z,8.03
2023-01-26T11:23:52.798Z,8.13
2023-01-26T11:26:57.735Z,8.77
2023-01-26T11:29:55.831Z,7.67
2023-01-26T11:33:07.334Z,7.10
2023-01-26T11:36:04.984Z,7.23
2023-01-26T11:38:38.907Z,7.90
2023-01-26T11:41:39.649Z,8.27
2023-01-26T11:44:13.555Z,9.07
2023-01-26T11:47:13.040Z,8.20
2023-01-26T11:50:03.191Z,9.60
2023-01-26T11:52:52.539Z,8.60
2023-01-26T11:55:55.614Z,10.17
2023-01-26T11:58:53.286Z,9.03
2023-01-26T12:01:32.791Z,8.47
2023-01-26T12:04:01.289Z,8.80
2023-01-26T12:06:28.920Z,8.23
2023-01-26T12:09:06.496Z,7.40
2023-01-26T12:12:06.832Z,7.73
2023-01-26T12:15:05.806Z,7.83
2023-01-26T12:17:42.799Z,7.90
2023-01-26T12:20:54.919Z,7.90
2023-01-26T12:23:26.034Z,7.17
2023-01-26T12:26:00.005Z,6.70
2023-01-26T12:28:40.447Z,7.00
2023-01-26T12:31:26.170Z,7.50
2023-01-26T12:33:59.326Z,7.97
2023-01-26T12:36:47.708Z,8.13
2023-01-26T12:39:32.522Z,7.73
2023-01-26T12:42:09.854Z,9.43
2023-01-26T12:44:57.921Z,8.83
2023-01-26T12:47:38.746Z,8.73
2023-01-26T12:50:15.994Z,9.63
2023-01-26T12:52:56.232Z,10.43
2023-01-26T12:56:01.123Z,10.87
2023-01-26T12:58:36.814Z,10.50
2023-01-26T13:01:15.452Z,11.80
2023-01-26T13:04:02.449Z,11.47
2023-01-26T13:06:30.032Z,11.03
2023-01-26T13:09:24.039Z,12.27
2023-01-26T13:12:03.807Z,12.67
2023-01-26T13:14:42.724Z,12.13
2023-01-26T13:17:18.543Z,10.63
2023-01-26T13:19:46.738Z,11.97
2023-01-26T13:22:20.910Z,12.07
2023-01-26T13:24:49.876Z,11.27
2023-01-26T13:27:30.302Z,10.97
2023-01-26T13:30:01.926Z,11.77
2023-01-26T13:32:28.936Z,11.17
2023-01-26T13:35:05.355Z,12.80
2023-01-26T13:38:07.685Z,11.93
2023-01-26T13:40:44.090Z,10.27
2023-01-26T13:43:31.632Z,11.17
2023-01-26T13:46:11.998Z,12.37
2023-01-26T13:49:02.006Z,12.17
2023-01-26T13:51:34.869Z,11.30
2023-01-26T13:54:21.791Z,11.97
2023-01-26T13:57:02.583Z,12.23
2023-01-26T13:59:30.812Z,12.40
2023-01-26T14:01:58.168Z,13.70
2023-01-26T14:04:30.850Z,14.10
2023-01-26T14:07:19.688Z,12.50
2023-01-26T14:10:01.394Z,12.77
2023-01-26T14:12:59.618Z,11.03
2023-01-26T14:15:33.568Z,12.03
2023-01-26T14:18:05.952Z,16.13
2023-01-26T14:20:39.970Z,16.17
2023-01-26T14:23:20.465Z,11.47
2023-01-26T14:26:02.935Z,14.17
2023-01-26T14:28:38.641Z,12.57
2023-01-26T14:31:26.906Z,14.83
2023-01-26T14:33:58.794Z,15.57
2023-01-26T14:36:29.777Z,16.10
2023-01-26T14:38:57.592Z,17.60
2023-01-26T14:41:30.368Z,22.47
2023-01-26T14:44:10.084Z,14.47
2023-01-26T14:47:10.039Z,11.97
2023-01-26T14:49:56.151Z,12.27
2023-01-26T14:52:37.289Z,13.13
2023-01-26T14:55:29.021Z,13.30
2023-01-26T14:58:03.378Z,12.73
2023-01-26T15:00:36.878Z,14.50
2023-01-26T15:03:24.603Z,12.20
2023-01-26T15:06:06.751Z,14.83
2023-01-26T15:08:40.235Z,12.10
2023-01-26T15:11:26.397Z,12.20
2023-01-26T15:13:55.496Z,16.83
2023-01-26T15:16:26.609Z,51.97
2023-01-26T15:19:02.646Z,13.53
2023-01-26T15:21:40.249Z,19.30
2023-01-26T15:24:14.229Z,17.30
2023-01-26T15:26:41.746Z,15.97
2023-01-26T15:29:41.987Z,15.43
2023-01-26T15:32:32.480Z,14.13
2023-01-26T15:35:25.176Z,14.10
2023-01-26T15:38:11.950Z,18.37
2023-01-26T15:40:39.866Z,13.83
2023-01-26T15:43:20.551Z,14.53
2023-01-26T15:45:55.409Z,13.77
2023-01-26T15:48:24.255Z,14.57
2023-01-26T15:50:51.736Z,13.67
2023-01-26T15:53:21.062Z,14.37
2023-01-26T15:55:52.873Z,13.77
2023-01-26T15:58:22.200Z,14.30
2023-01-26T16:00:50.492Z,14.20
2023-01-26T16:03:19.566Z,13.03
2023-01-26T16:05:50.285Z,13.73
2023-01-26T16:08:24.384Z,12.70
2023-01-26T16:10:51.800Z,13.40
2023-01-26T16:13:19.318Z,12.47
2023-01-26T16:15:49.537Z,13.87
2023-01-26T16:18:16.774Z,13.93
2023-01-26T16:20:46.091Z,12.67
2023-01-26T16:23:25.011Z,12.97
2023-01-26T16:25:52.687Z,13.77
2023-01-26T16:28:19.964Z,14.40
2023-01-26T16:30:49.702Z,13.57
2023-01-26T16:33:21.390Z,13.57
2023-01-26T16:35:49.591Z,13.73
2023-01-26T16:38:17.615Z,12.90
2023-01-26T16:40:46.557Z,12.43
2023-01-26T16:43:23.420Z,12.60
2023-01-26T16:45:51.385Z,11.63
2023-01-26T16:48:20.311Z,13.13
2023-01-26T16:50:51.684Z,12.00
2023-01-26T16:53:30.755Z,12.50
2023-01-26T16:55:58.348Z,12.40
2023-01-26T16:58:30.635Z,11.73
2023-01-26T17:00:57.758Z,12.97
2023-01-26T17:03:25.805Z,12.63
2023-01-26T17:05:56.036Z,13.40
2023-01-26T17:08:23.337Z,15.00
2023-01-26T17:11:01.581Z,13.80
2023-01-26T17:13:29.443Z,12.10
2023-01-26T17:15:58.516Z,12.20
2023-01-26T17:18:26.208Z,12.33
2023-01-26T17:20:53.379Z,10.03
2023-01-26T17:23:21.428Z,11.20
2023-01-26T17:25:48.654Z,9.33
2023-01-26T17:28:16.087Z,10.00
2023-01-26T17:30:43.405Z,9.87
2023-01-26T17:33:10.711Z,10.10
2023-01-26T17:35:37.777Z,8.57
2023-01-26T17:38:05.836Z,9.13
2023-01-26T17:40:37.183Z,8.57
2023-01-26T17:43:04.410Z,7.97
2023-01-26T17:45:31.493Z,8.77
2023-01-26T17:47:58.553Z,8.60
2023-01-26T17:50:26.392Z,8.57
2023-01-26T17:52:53.476Z,8.60
2023-01-26T17:55:20.555Z,8.23
2023-01-26T17:57:48.039Z,8.33
2023-01-26T18:00:16.229Z,7.67
2023-01-26T18:02:43.291Z,6.13
2023-01-26T18:05:10.816Z,7.47
2023-01-26T18:07:38.152Z,8.07
2023-01-26T18:10:05.677Z,7.50
2023-01-26T18:12:33.722Z,6.77
2023-01-26T18:15:00.860Z,5.80
2023-01-26T18:17:28.212Z,6.57
2023-01-26T18:19:55.620Z,6.37
2023-01-26T18:22:22.700Z,5.90
2023-01-26T18:24:49.885Z,6.83
2023-01-26T18:27:17.431Z,6.20
2023-01-26T18:29:44.578Z,6.77
2023-01-26T18:32:11.733Z,7.60
2023-01-26T18:34:41.898Z,7.83
2023-01-26T18:37:13.011Z,7.83
2023-01-26T18:39:40.090Z,7.67
2023-01-26T18:42:07.148Z,6.50
2023-01-26T18:44:34.280Z,5.80
2023-01-26T18:47:01.297Z,5.27
2023-01-26T18:49:28.331Z,6.70
2023-01-26T18:51:55.347Z,5.70
2023-01-26T18:54:22.266Z,5.97
2023-01-26T18:56:49.369Z,7.33
2023-01-26T18:59:17.875Z,7.53
2023-01-26T19:01:44.961Z,7.30
2023-01-26T19:04:12.559Z,7.93
2023-01-26T19:06:39.575Z,6.80
2023-01-26T19:09:08.646Z,6.03
2023-01-26T19:11:38.195Z,6.87
2023-01-26T19:14:07.067Z,7.13
2023-01-26T19:16:34.932Z,6.90
2023-01-26T19:19:02.163Z,7.30
2023-01-26T19:21:29.499Z,7.17
2023-01-26T19:23:58.984Z,6.50
2023-01-26T19:26:30.930Z,8.73
2023-01-26T19:28:59.163Z,8.07
2023-01-26T19:31:27.653Z,8.87
2023-01-26T19:34:00.127Z,8.97
2023-01-26T19:36:29.237Z,9.50
2023-01-26T19:38:56.429Z,9.10
2023-01-26T19:41:24.539Z,7.83
2023-01-26T19:43:51.965Z,6.93
2023-01-26T19:46:20.136Z,8.17
2023-01-26T19:48:47.335Z,7.57
2023-01-26T19:51:20.096Z,8.00
2023-01-26T19:53:50.334Z,7.90
2023-01-26T19:56:23.344Z,9.07
2023-01-26T19:58:58.345Z,7.27
2023-01-26T20:01:30.244Z,8.50
2023-01-26T20:04:09.518Z,8.03
2023-01-26T20:06:37.634Z,7.87
2023-01-26T20:09:06.788Z,8.27
2023-01-26T20:11:34.317Z,7.43
2023-01-26T20:14:08.817Z,7.97
2023-01-26T20:16:36.919Z,8.60
2023-01-26T20:19:07.916Z,8.77
2023-01-26T20:21:35.749Z,7.73
2023-01-26T20:24:06.893Z,8.43
2023-01-26T20:26:34.995Z,7.57
2023-01-26T20:29:05.116Z,9.13
2023-01-26T20:31:33.135Z,9.10
2023-01-26T20:34:01.810Z,7.77
2023-01-26T20:36:29.383Z,8.67
2023-01-26T20:38:56.623Z,8.73
2023-01-26T20:41:29.359Z,8.63
2023-01-26T20:44:04.146Z,9.37
2023-01-26T20:46:42.465Z,9.00
2023-01-26T20:49:12.845Z,9.67
2023-01-26T20:51:48.023Z,10.03
2023-01-26T20:54:17.241Z,9.57
2023-01-26T20:56:45.905Z,11.23
2023-01-26T20:59:13.019Z,10.80
2023-01-26T21:01:40.046Z,9.87
2023-01-26T21:04:11.019Z,9.30
2023-01-26T21:06:39.042Z,11.00
2023-01-26T21:09:06.121Z,11.03
2023-01-26T21:11:34.180Z,9.73
2023-01-26T21:14:02.685Z,9.57
2023-01-26T21:16:31.594Z,10.23
2023-01-26T21:18:59.057Z,9.30
2023-01-26T21:21:26.122Z,9.03
2023-01-26T21:23:53.509Z,10.23
2023-01-26T21:26:23.262Z,9.10
2023-01-26T21:28:55.921Z,9.37
2023-01-26T21:31:25.591Z,8.90
2023-01-26T21:33:53.577Z,9.80
2023-01-26T21:36:23.176Z,9.93
2023-01-26T21:38:52.281Z,8.97
2023-01-26T21:41:40.563Z,9.93
2023-01-26T21:44:12.945Z,9.87
2023-01-26T21:46:40.589Z,9.37
2023-01-26T21:49:08.424Z,8.40
2023-01-26T21:51:54.359Z,8.00
2023-01-26T21:54:21.612Z,9.23
2023-01-26T21:56:48.648Z,9.23
2023-01-26T21:59:17.051Z,9.50
2023-01-26T22:01:46.881Z,8.63
2023-01-26T22:04:17.252Z,9.20
2023-01-26T22:06:44.454Z,9.07
2023-01-26T22:09:14.148Z,8.47
2023-01-26T22:11:41.387Z,9.40
2023-01-26T22:14:15.319Z,8.83
2023-01-26T22:16:42.843Z,8.57
2023-01-26T22:19:11.121Z,7.70
2023-01-26T22:21:38.846Z,7.73
2023-01-26T22:24:07.459Z,7.33
2023-01-26T22:26:34.996Z,6.17
2023-01-26T22:29:02.595Z,7.37
2023-01-26T22:31:30.499Z,7.47
2023-01-26T22:34:00.135Z,7.80
2023-01-26T22:36:28.321Z,7.77
2023-01-26T22:38:55.698Z,8.43
2023-01-26T22:41:27.413Z,9.60
2023-01-26T22:43:57.827Z,8.37
2023-01-26T22:46:26.115Z,9.30
2023-01-26T22:48:53.657Z,8.70
2023-01-26T22:51:45.052Z,8.10
2023-01-26T22:54:12.101Z,7.83
2023-01-26T22:56:42.807Z,8.03
2023-01-26T22:59:13.257Z,7.20
2023-01-26T23:01:43.084Z,8.60
2023-01-26T23:04:10.380Z,8.57
2023-01-26T23:06:37.368Z,7.73
2023-01-26T23:09:08.115Z,7.47
2023-01-26T23:11:35.133Z,8.33
2023-01-26T23:14:02.420Z,7.13
2023-01-26T23:16:29.675Z,7.23
2023-01-26T23:18:58.629Z,6.23
2023-01-26T23:21:30.400Z,6.77
2023-01-26T23:23:58.145Z,7.27
2023-01-26T23:26:27.975Z,6.73
2023-01-26T23:28:55.450Z,6.97
2023-01-26T23:31:23.033Z,5.53
2023-01-26T23:33:50.136Z,6.30
2023-01-26T23:36:17.335Z,5.33
2023-01-26T23:38:49.331Z,5.80
2023-01-26T23:41:16.693Z,6.47
2023-01-26T23:43:43.636Z,5.63
2023-01-26T23:46:13.532Z,6.97
2023-01-26T23:48:41.015Z,7.43
2023-01-26T23:51:12.036Z,7.33
2023-01-26T23:53:39.857Z,6.87
2023-01-26T23:56:14.118Z,6.43
2023-01-26T23:58:41.365Z,6.90
